sensor_id;sensor_type;location;lat;lon;timestamp;temperature;humidity
12053;DHT22;6087;48.982;12.064;2022-10-03T00:00:57;10.70;99.90
12053;DHT22;6087;48.982;12.064;2022-10-03T00:03:34;10.60;99.90
12053;DHT22;6087;48.982;12.064;2022-10-03T00:06:07;10.60;99.90
12053;DHT22;6087;48.982;12.064;2022-10-03T00:08:55;10.60;99.90
12053;DHT22;6087;48.982;12.064;2022-10-03T00:11:34;10.60;99.90
12053;DHT22;6087;48.982;12.064;2022-10-03T00:14:12;10.60;99.90
12053;DHT22;6087;48.982;12.064;2022-10-03T00:16:47;10.60;99.90
12053;DHT22;6087;48.982;12.064;2022-10-03T00:19:23;10.60;99.90
12053;DHT22;6087;48.982;12.064;2022-10-03T00:22:06;10.60;99.90
12053;DHT22;6087;48.982;12.064;2022-10-03T00:24:43;10.60;99.90
12053;DHT22;6087;48.982;12.064;2022-10-03T00:27:16;10.60;99.90
12053;DHT22;6087;48.982;12.064;2022-10-03T00:30:04;10.50;99.90
12053;DHT22;6087;48.982;12.064;2022-10-03T00:32:44;10.60;99.90
12053;DHT22;6087;48.982;12.064;2022-10-03T00:35:21;10.60;99.90
12053;DHT22;6087;48.982;12.064;2022-10-03T00:38:02;10.50;99.90
12053;DHT22;6087;48.982;12.064;2022-10-03T00:40:44;10.50;99.90
12053;DHT22;6087;48.982;12.064;2022-10-03T00:43:45;10.50;99.90
12053;DHT22;6087;48.982;12.064;2022-10-03T00:46:39;10.40;99.90
12053;DHT22;6087;48.982;12.064;2022-10-03T00:52:25;10.50;99.90
12053;DHT22;6087;48.982;12.064;2022-10-03T00:55:05;10.50;99.90
12053;DHT22;6087;48.982;12.064;2022-10-03T00:58:01;10.50;99.90
12053;DHT22;6087;48.982;12.064;2022-10-03T01:00:33;10.40;99.90
12053;DHT22;6087;48.982;12.064;2022-10-03T01:03:23;10.40;99.90
12053;DHT22;6087;48.982;12.064;2022-10-03T01:06:05;10.40;99.90
12053;DHT22;6087;48.982;12.064;2022-10-03T01:11:42;10.40;99.90
12053;DHT22;6087;48.982;12.064;2022-10-03T01:14:25;10.40;99.90
12053;DHT22;6087;48.982;12.064;2022-10-03T01:17:07;10.50;99.90
12053;DHT22;6087;48.982;12.064;2022-10-03T01:20:17;10.50;99.90
12053;DHT22;6087;48.982;12.064;2022-10-03T01:23:12;10.50;99.90
12053;DHT22;6087;48.982;12.064;2022-10-03T01:25:49;10.50;99.90
12053;DHT22;6087;48.982;12.064;2022-10-03T01:28:36;10.50;99.90
12053;DHT22;6087;48.982;12.064;2022-10-03T01:31:27;10.50;99.90
12053;DHT22;6087;48.982;12.064;2022-10-03T01:34:02;10.50;99.90
12053;DHT22;6087;48.982;12.064;2022-10-03T01:36:38;10.60;99.90
12053;DHT22;6087;48.982;12.064;2022-10-03T01:39:13;10.60;99.90
12053;DHT22;6087;48.982;12.064;2022-10-03T01:41:48;10.60;99.90
12053;DHT22;6087;48.982;12.064;2022-10-03T01:44:20;10.60;99.90
12053;DHT22;6087;48.982;12.064;2022-10-03T01:46:53;10.60;99.90
12053;DHT22;6087;48.982;12.064;2022-10-03T01:49:26;10.60;99.90
12053;DHT22;6087;48.982;12.064;2022-10-03T01:52:00;10.50;99.90
12053;DHT22;6087;48.982;12.064;2022-10-03T01:54:35;10.60;99.90
12053;DHT22;6087;48.982;12.064;2022-10-03T01:57:12;10.60;99.90
12053;DHT22;6087;48.982;12.064;2022-10-03T01:59:47;10.60;99.90
12053;DHT22;6087;48.982;12.064;2022-10-03T02:02:26;10.60;99.90
12053;DHT22;6087;48.982;12.064;2022-10-03T02:05:01;10.60;99.90
12053;DHT22;6087;48.982;12.064;2022-10-03T02:07:38;10.60;99.90
12053;DHT22;6087;48.982;12.064;2022-10-03T02:10:16;10.60;99.90
12053;DHT22;6087;48.982;12.064;2022-10-03T02:12:52;10.60;99.90
12053;DHT22;6087;48.982;12.064;2022-10-03T02:15:26;10.60;99.90
12053;DHT22;6087;48.982;12.064;2022-10-03T02:17:57;10.60;99.90
12053;DHT22;6087;48.982;12.064;2022-10-03T02:20:33;10.60;99.90
12053;DHT22;6087;48.982;12.064;2022-10-03T02:23:21;10.60;99.90
12053;DHT22;6087;48.982;12.064;2022-10-03T02:25:57;10.50;99.90
12053;DHT22;6087;48.982;12.064;2022-10-03T02:28:54;10.50;99.90
12053;DHT22;6087;48.982;12.064;2022-10-03T02:31:59;10.50;99.90
12053;DHT22;6087;48.982;12.064;2022-10-03T02:34:51;10.40;99.90
12053;DHT22;6087;48.982;12.064;2022-10-03T02:40:45;10.30;99.90
12053;DHT22;6087;48.982;12.064;2022-10-03T02:43:47;10.30;99.90
12053;DHT22;6087;48.982;12.064;2022-10-03T02:49:42;10.30;99.90
12053;DHT22;6087;48.982;12.064;2022-10-03T02:55:26;10.30;99.90
12053;DHT22;6087;48.982;12.064;2022-10-03T02:58:15;10.30;99.90
12053;DHT22;6087;48.982;12.064;2022-10-03T03:01:18;10.30;99.90
12053;DHT22;6087;48.982;12.064;2022-10-03T03:06:59;10.30;99.90
12053;DHT22;6087;48.982;12.064;2022-10-03T03:09:56;10.30;99.90
12053;DHT22;6087;48.982;12.064;2022-10-03T03:12:48;10.30;99.90
12053;DHT22;6087;48.982;12.064;2022-10-03T03:18:38;10.30;99.90
12053;DHT22;6087;48.982;12.064;2022-10-03T03:21:19;10.30;99.90
12053;DHT22;6087;48.982;12.064;2022-10-03T03:24:01;10.30;99.90
12053;DHT22;6087;48.982;12.064;2022-10-03T03:26:42;10.30;99.90
12053;DHT22;6087;48.982;12.064;2022-10-03T03:29:19;10.30;99.90
12053;DHT22;6087;48.982;12.064;2022-10-03T03:31:53;10.30;99.90
12053;DHT22;6087;48.982;12.064;2022-10-03T03:34:30;10.40;99.90
12053;DHT22;6087;48.982;12.064;2022-10-03T03:37:03;10.30;99.90
12053;DHT22;6087;48.982;12.064;2022-10-03T03:39:50;10.30;99.90
12053;DHT22;6087;48.982;12.064;2022-10-03T03:45:34;10.20;99.90
12053;DHT22;6087;48.982;12.064;2022-10-03T03:48:30;10.20;99.90
12053;DHT22;6087;48.982;12.064;2022-10-03T03:51:14;10.10;99.90
12053;DHT22;6087;48.982;12.064;2022-10-03T03:54:11;10.10;99.90
12053;DHT22;6087;48.982;12.064;2022-10-03T04:02:51;10.00;99.90
12053;DHT22;6087;48.982;12.064;2022-10-03T04:05:37;10.10;99.90
12053;DHT22;6087;48.982;12.064;2022-10-03T04:08:21;10.20;99.90
12053;DHT22;6087;48.982;12.064;2022-10-03T04:11:00;10.20;99.90
12053;DHT22;6087;48.982;12.064;2022-10-03T04:16:47;10.40;99.90
12053;DHT22;6087;48.982;12.064;2022-10-03T04:19:46;10.30;99.90
12053;DHT22;6087;48.982;12.064;2022-10-03T04:22:27;10.30;99.90
12053;DHT22;6087;48.982;12.064;2022-10-03T04:25:24;10.30;99.90
12053;DHT22;6087;48.982;12.064;2022-10-03T04:28:13;10.20;99.90
12053;DHT22;6087;48.982;12.064;2022-10-03T04:31:00;10.10;99.90
12053;DHT22;6087;48.982;12.064;2022-10-03T04:33:41;10.10;99.90
12053;DHT22;6087;48.982;12.064;2022-10-03T04:36:32;10.00;99.90
12053;DHT22;6087;48.982;12.064;2022-10-03T04:39:07;10.00;99.90
12053;DHT22;6087;48.982;12.064;2022-10-03T04:41:42;10.00;99.90
12053;DHT22;6087;48.982;12.064;2022-10-03T04:44:19;10.00;99.90
12053;DHT22;6087;48.982;12.064;2022-10-03T04:46:56;10.10;99.90
12053;DHT22;6087;48.982;12.064;2022-10-03T04:49:30;10.10;99.90
12053;DHT22;6087;48.982;12.064;2022-10-03T04:52:03;10.00;99.90
12053;DHT22;6087;48.982;12.064;2022-10-03T04:54:40;10.00;99.90
12053;DHT22;6087;48.982;12.064;2022-10-03T04:57:24;10.00;99.90
12053;DHT22;6087;48.982;12.064;2022-10-03T05:00:03;10.00;99.90
12053;DHT22;6087;48.982;12.064;2022-10-03T05:02:47;10.10;99.90
12053;DHT22;6087;48.982;12.064;2022-10-03T05:05:25;10.00;99.90
12053;DHT22;6087;48.982;12.064;2022-10-03T05:07:59;10.10;99.90
12053;DHT22;6087;48.982;12.064;2022-10-03T05:10:43;10.00;99.90
12053;DHT22;6087;48.982;12.064;2022-10-03T05:13:14;10.00;99.90
12053;DHT22;6087;48.982;12.064;2022-10-03T05:15:53;10.10;99.90
12053;DHT22;6087;48.982;12.064;2022-10-03T05:18:29;10.10;99.90
12053;DHT22;6087;48.982;12.064;2022-10-03T05:21:06;10.00;99.90
12053;DHT22;6087;48.982;12.064;2022-10-03T05:23:44;10.00;99.90
12053;DHT22;6087;48.982;12.064;2022-10-03T05:26:20;10.10;99.90
12053;DHT22;6087;48.982;12.064;2022-10-03T05:28:52;9.90;99.90
12053;DHT22;6087;48.982;12.064;2022-10-03T05:31:30;9.90;99.90
12053;DHT22;6087;48.982;12.064;2022-10-03T05:34:09;9.90;99.90
12053;DHT22;6087;48.982;12.064;2022-10-03T05:36:56;9.90;99.90
12053;DHT22;6087;48.982;12.064;2022-10-03T05:39:37;10.00;99.90
12053;DHT22;6087;48.982;12.064;2022-10-03T05:42:37;9.90;99.90
12053;DHT22;6087;48.982;12.064;2022-10-03T05:45:20;9.90;99.90
12053;DHT22;6087;48.982;12.064;2022-10-03T05:47:53;9.80;99.90
12053;DHT22;6087;48.982;12.064;2022-10-03T05:50:41;9.80;99.90
12053;DHT22;6087;48.982;12.064;2022-10-03T05:53:38;9.80;99.90
12053;DHT22;6087;48.982;12.064;2022-10-03T05:56:19;9.80;99.90
12053;DHT22;6087;48.982;12.064;2022-10-03T05:59:10;9.80;99.90
12053;DHT22;6087;48.982;12.064;2022-10-03T06:04:44;9.70;99.90
12053;DHT22;6087;48.982;12.064;2022-10-03T06:07:22;9.70;99.90
12053;DHT22;6087;48.982;12.064;2022-10-03T06:13:06;9.80;99.90
12053;DHT22;6087;48.982;12.064;2022-10-03T06:15:57;9.80;99.90
12053;DHT22;6087;48.982;12.064;2022-10-03T06:25:07;9.90;99.90
12053;DHT22;6087;48.982;12.064;2022-10-03T06:30:58;10.10;99.90
12053;DHT22;6087;48.982;12.064;2022-10-03T06:34:00;10.10;99.90
12053;DHT22;6087;48.982;12.064;2022-10-03T06:36:43;10.20;99.90
12053;DHT22;6087;48.982;12.064;2022-10-03T06:39:30;10.20;99.90
12053;DHT22;6087;48.982;12.064;2022-10-03T06:42:33;10.20;99.90
12053;DHT22;6087;48.982;12.064;2022-10-03T06:48:34;10.40;99.90
12053;DHT22;6087;48.982;12.064;2022-10-03T06:54:15;10.50;99.90
12053;DHT22;6087;48.982;12.064;2022-10-03T06:57:11;10.40;99.90
12053;DHT22;6087;48.982;12.064;2022-10-03T07:00:11;10.50;99.90
12053;DHT22;6087;48.982;12.064;2022-10-03T07:03:03;10.60;99.90
12053;DHT22;6087;48.982;12.064;2022-10-03T07:06:17;10.60;99.90
12053;DHT22;6087;48.982;12.064;2022-10-03T07:12:35;10.60;99.90
12053;DHT22;6087;48.982;12.064;2022-10-03T07:18:44;10.80;99.90
12053;DHT22;6087;48.982;12.064;2022-10-03T07:24:50;10.90;99.90
12053;DHT22;6087;48.982;12.064;2022-10-03T07:30:22;11.10;99.90
12053;DHT22;6087;48.982;12.064;2022-10-03T07:33:21;11.20;99.90
12053;DHT22;6087;48.982;12.064;2022-10-03T07:36:04;11.30;99.90
12053;DHT22;6087;48.982;12.064;2022-10-03T07:39:49;11.40;99.90
12053;DHT22;6087;48.982;12.064;2022-10-03T07:42:35;11.40;99.90
12053;DHT22;6087;48.982;12.064;2022-10-03T07:45:39;11.50;99.90
12053;DHT22;6087;48.982;12.064;2022-10-03T07:48:47;11.40;99.90
12053;DHT22;6087;48.982;12.064;2022-10-03T07:51:22;11.30;99.90
12053;DHT22;6087;48.982;12.064;2022-10-03T07:54:35;11.30;99.90
12053;DHT22;6087;48.982;12.064;2022-10-03T08:00:09;11.50;99.90
12053;DHT22;6087;48.982;12.064;2022-10-03T08:05:51;11.70;99.90
12053;DHT22;6087;48.982;12.064;2022-10-03T08:08:59;11.80;99.90
12053;DHT22;6087;48.982;12.064;2022-10-03T08:11:47;11.80;99.90
12053;DHT22;6087;48.982;12.064;2022-10-03T08:14:20;11.90;99.90
12053;DHT22;6087;48.982;12.064;2022-10-03T08:20:20;11.90;99.90
12053;DHT22;6087;48.982;12.064;2022-10-03T08:23:03;11.90;99.90
12053;DHT22;6087;48.982;12.064;2022-10-03T08:25:50;12.00;99.90
12053;DHT22;6087;48.982;12.064;2022-10-03T08:28:37;12.00;99.90
12053;DHT22;6087;48.982;12.064;2022-10-03T08:31:20;12.00;99.90
12053;DHT22;6087;48.982;12.064;2022-10-03T08:34:16;12.00;99.90
12053;DHT22;6087;48.982;12.064;2022-10-03T08:37:23;12.00;99.90
12053;DHT22;6087;48.982;12.064;2022-10-03T08:40:18;11.90;99.90
12053;DHT22;6087;48.982;12.064;2022-10-03T08:46:10;12.00;99.90
12053;DHT22;6087;48.982;12.064;2022-10-03T08:48:55;12.00;99.90
12053;DHT22;6087;48.982;12.064;2022-10-03T08:51:52;12.00;99.90
12053;DHT22;6087;48.982;12.064;2022-10-03T08:57:58;12.00;69.70
12053;DHT22;6087;48.982;12.064;2022-10-03T09:04:01;12.10;89.40
12053;DHT22;6087;48.982;12.064;2022-10-03T09:06:52;12.00;9.00
12053;DHT22;6087;48.982;12.064;2022-10-03T09:10:07;12.00;1.00
12053;DHT22;6087;48.982;12.064;2022-10-03T09:13:21;12.10;1.00
12053;DHT22;6087;48.982;12.064;2022-10-03T09:19:10;12.20;67.20
12053;DHT22;6087;48.982;12.064;2022-10-03T09:22:04;12.20;1.00
12053;DHT22;6087;48.982;12.064;2022-10-03T09:31:14;12.10;37.20
12053;DHT22;6087;48.982;12.064;2022-10-03T09:37:18;12.20;11.10
12053;DHT22;6087;48.982;12.064;2022-10-03T09:43:22;12.30;4.80
12053;DHT22;6087;48.982;12.064;2022-10-03T09:46:16;12.30;5.70
12053;DHT22;6087;48.982;12.064;2022-10-03T09:49:24;12.40;61.60
12053;DHT22;6087;48.982;12.064;2022-10-03T09:52:08;12.50;37.70
12053;DHT22;6087;48.982;12.064;2022-10-03T09:55:00;12.50;1.00
12053;DHT22;6087;48.982;12.064;2022-10-03T09:57:56;12.50;1.00
12053;DHT22;6087;48.982;12.064;2022-10-03T10:00:34;12.50;99.90
12053;DHT22;6087;48.982;12.064;2022-10-03T10:06:35;12.50;1.00
12053;DHT22;6087;48.982;12.064;2022-10-03T10:19:00;12.80;99.90
12053;DHT22;6087;48.982;12.064;2022-10-03T10:40:29;13.10;99.90
12053;DHT22;6087;48.982;12.064;2022-10-03T10:43:30;13.10;1.00
12053;DHT22;6087;48.982;12.064;2022-10-03T10:46:20;13.20;1.00
12053;DHT22;6087;48.982;12.064;2022-10-03T10:52:32;13.30;99.90
12053;DHT22;6087;48.982;12.064;2022-10-03T10:55:38;13.40;1.00
12053;DHT22;6087;48.982;12.064;2022-10-03T11:01:36;13.70;99.90
12053;DHT22;6087;48.982;12.064;2022-10-03T11:04:49;13.70;1.00
12053;DHT22;6087;48.982;12.064;2022-10-03T11:08:00;13.70;1.00
12053;DHT22;6087;48.982;12.064;2022-10-03T11:10:38;13.80;1.00
12053;DHT22;6087;48.982;12.064;2022-10-03T11:13:39;13.70;99.90
12053;DHT22;6087;48.982;12.064;2022-10-03T11:26:12;13.60;99.90
12053;DHT22;6087;48.982;12.064;2022-10-03T11:29:15;13.60;99.90
12053;DHT22;6087;48.982;12.064;2022-10-03T11:32:10;13.70;1.00
12053;DHT22;6087;48.982;12.064;2022-10-03T11:35:22;14.10;1.00
12053;DHT22;6087;48.982;12.064;2022-10-03T11:37:57;14.30;1.00
12053;DHT22;6087;48.982;12.064;2022-10-03T11:40:35;14.40;1.00
12053;DHT22;6087;48.982;12.064;2022-10-03T11:46:21;14.20;99.90
12053;DHT22;6087;48.982;12.064;2022-10-03T11:48:53;14.20;99.90
12053;DHT22;6087;48.982;12.064;2022-10-03T11:51:38;14.10;99.90
12053;DHT22;6087;48.982;12.064;2022-10-03T11:54:15;14.10;99.90
12053;DHT22;6087;48.982;12.064;2022-10-03T11:56:45;14.20;1.00
12053;DHT22;6087;48.982;12.064;2022-10-03T11:59:30;15.20;1.00
12053;DHT22;6087;48.982;12.064;2022-10-03T12:02:07;16.30;1.00
12053;DHT22;6087;48.982;12.064;2022-10-03T12:04:45;16.80;1.00
12053;DHT22;6087;48.982;12.064;2022-10-03T12:07:26;16.90;1.00
12053;DHT22;6087;48.982;12.064;2022-10-03T12:10:20;16.60;1.00
12053;DHT22;6087;48.982;12.064;2022-10-03T12:12:53;17.70;35.80
12053;DHT22;6087;48.982;12.064;2022-10-03T12:15:29;18.20;1.00
12053;DHT22;6087;48.982;12.064;2022-10-03T12:18:05;18.20;99.90
12053;DHT22;6087;48.982;12.064;2022-10-03T12:20:46;18.10;75.90
12053;DHT22;6087;48.982;12.064;2022-10-03T12:23:27;17.60;99.90
12053;DHT22;6087;48.982;12.064;2022-10-03T12:25:58;17.40;1.00
12053;DHT22;6087;48.982;12.064;2022-10-03T12:28:31;17.30;1.00
12053;DHT22;6087;48.982;12.064;2022-10-03T12:31:11;17.10;1.00
12053;DHT22;6087;48.982;12.064;2022-10-03T12:33:47;16.90;1.00
12053;DHT22;6087;48.982;12.064;2022-10-03T12:36:17;16.70;1.00
12053;DHT22;6087;48.982;12.064;2022-10-03T12:38:59;16.50;1.00
12053;DHT22;6087;48.982;12.064;2022-10-03T12:41:43;16.20;99.90
12053;DHT22;6087;48.982;12.064;2022-10-03T12:44:22;16.00;99.90
12053;DHT22;6087;48.982;12.064;2022-10-03T12:47:04;15.80;1.00
12053;DHT22;6087;48.982;12.064;2022-10-03T12:49:47;15.70;90.00
12053;DHT22;6087;48.982;12.064;2022-10-03T12:52:21;15.50;1.00
12053;DHT22;6087;48.982;12.064;2022-10-03T12:55:02;15.50;99.90
12053;DHT22;6087;48.982;12.064;2022-10-03T12:57:46;15.50;1.00
12053;DHT22;6087;48.982;12.064;2022-10-03T13:00:20;15.30;99.90
12053;DHT22;6087;48.982;12.064;2022-10-03T13:03:06;15.40;1.00
12053;DHT22;6087;48.982;12.064;2022-10-03T13:06:11;15.40;99.90
12053;DHT22;6087;48.982;12.064;2022-10-03T13:08:52;15.40;1.00
12053;DHT22;6087;48.982;12.064;2022-10-03T13:11:30;15.30;1.00
12053;DHT22;6087;48.982;12.064;2022-10-03T13:14:12;15.20;1.00
12053;DHT22;6087;48.982;12.064;2022-10-03T13:16:49;15.10;99.90
12053;DHT22;6087;48.982;12.064;2022-10-03T13:19:23;15.00;1.00
12053;DHT22;6087;48.982;12.064;2022-10-03T13:22:02;15.00;46.00
12053;DHT22;6087;48.982;12.064;2022-10-03T13:24:35;14.90;99.90
12053;DHT22;6087;48.982;12.064;2022-10-03T13:30:02;14.80;99.90
12053;DHT22;6087;48.982;12.064;2022-10-03T13:32:32;14.80;99.90
12053;DHT22;6087;48.982;12.064;2022-10-03T13:41:15;14.50;96.40
12053;DHT22;6087;48.982;12.064;2022-10-03T13:43:47;14.50;1.00
12053;DHT22;6087;48.982;12.064;2022-10-03T13:46:18;14.40;1.00
12053;DHT22;6087;48.982;12.064;2022-10-03T13:48:55;14.40;1.00
12053;DHT22;6087;48.982;12.064;2022-10-03T13:51:32;14.40;1.00
12053;DHT22;6087;48.982;12.064;2022-10-03T13:54:03;14.30;26.30
12053;DHT22;6087;48.982;12.064;2022-10-03T13:56:43;14.30;1.00
12053;DHT22;6087;48.982;12.064;2022-10-03T13:59:28;14.30;1.00
12053;DHT22;6087;48.982;12.064;2022-10-03T14:02:05;14.30;99.90
12053;DHT22;6087;48.982;12.064;2022-10-03T14:04:46;14.20;1.00
12053;DHT22;6087;48.982;12.064;2022-10-03T14:07:25;14.20;99.90
12053;DHT22;6087;48.982;12.064;2022-10-03T14:10:10;14.10;92.50
12053;DHT22;6087;48.982;12.064;2022-10-03T14:12:51;14.10;49.20
12053;DHT22;6087;48.982;12.064;2022-10-03T14:15:30;14.10;99.90
12053;DHT22;6087;48.982;12.064;2022-10-03T14:18:06;14.10;1.00
12053;DHT22;6087;48.982;12.064;2022-10-03T14:20:40;14.00;1.00
12053;DHT22;6087;48.982;12.064;2022-10-03T14:23:31;13.90;99.90
12053;DHT22;6087;48.982;12.064;2022-10-03T14:26:06;13.80;99.90
12053;DHT22;6087;48.982;12.064;2022-10-03T14:28:39;13.70;1.00
12053;DHT22;6087;48.982;12.064;2022-10-03T14:31:11;13.60;99.90
12053;DHT22;6087;48.982;12.064;2022-10-03T14:33:45;13.50;1.00
12053;DHT22;6087;48.982;12.064;2022-10-03T14:36:23;13.40;1.00
12053;DHT22;6087;48.982;12.064;2022-10-03T14:39:18;13.40;99.90
12053;DHT22;6087;48.982;12.064;2022-10-03T14:44:45;13.40;99.90
12053;DHT22;6087;48.982;12.064;2022-10-03T14:47:16;13.40;79.70
12053;DHT22;6087;48.982;12.064;2022-10-03T14:49:48;13.30;1.00
12053;DHT22;6087;48.982;12.064;2022-10-03T14:52:24;13.30;1.00
12053;DHT22;6087;48.982;12.064;2022-10-03T14:54:55;13.30;99.90
12053;DHT22;6087;48.982;12.064;2022-10-03T14:57:30;13.30;99.90
12053;DHT22;6087;48.982;12.064;2022-10-03T14:59:58;13.20;99.90
12053;DHT22;6087;48.982;12.064;2022-10-03T15:02:29;13.20;1.00
12053;DHT22;6087;48.982;12.064;2022-10-03T15:05:03;13.20;1.00
12053;DHT22;6087;48.982;12.064;2022-10-03T15:07:35;13.20;1.00
12053;DHT22;6087;48.982;12.064;2022-10-03T15:10:09;13.10;99.90
12053;DHT22;6087;48.982;12.064;2022-10-03T15:12:39;13.10;99.90
12053;DHT22;6087;48.982;12.064;2022-10-03T15:15:09;13.20;1.00
12053;DHT22;6087;48.982;12.064;2022-10-03T15:17:44;13.20;12.10
12053;DHT22;6087;48.982;12.064;2022-10-03T15:20:12;13.20;1.00
12053;DHT22;6087;48.982;12.064;2022-10-03T15:22:47;13.20;1.00
12053;DHT22;6087;48.982;12.064;2022-10-03T15:25:19;13.30;1.00
12053;DHT22;6087;48.982;12.064;2022-10-03T15:27:49;13.40;99.90
12053;DHT22;6087;48.982;12.064;2022-10-03T15:30:22;13.40;1.00
12053;DHT22;6087;48.982;12.064;2022-10-03T15:32:51;13.50;1.00
12053;DHT22;6087;48.982;12.064;2022-10-03T15:35:23;13.50;1.00
12053;DHT22;6087;48.982;12.064;2022-10-03T15:37:51;13.50;1.00
12053;DHT22;6087;48.982;12.064;2022-10-03T15:40:23;13.60;55.60
12053;DHT22;6087;48.982;12.064;2022-10-03T15:43:01;13.60;1.00
12053;DHT22;6087;48.982;12.064;2022-10-03T15:45:31;13.60;1.00
12053;DHT22;6087;48.982;12.064;2022-10-03T15:48:03;13.50;1.00
12053;DHT22;6087;48.982;12.064;2022-10-03T15:50:35;13.50;1.00
12053;DHT22;6087;48.982;12.064;2022-10-03T15:53:07;13.50;99.90
12053;DHT22;6087;48.982;12.064;2022-10-03T15:55:40;13.40;99.90
12053;DHT22;6087;48.982;12.064;2022-10-03T15:58:15;13.40;1.00
12053;DHT22;6087;48.982;12.064;2022-10-03T16:00:45;13.40;1.00
12053;DHT22;6087;48.982;12.064;2022-10-03T16:03:14;13.40;99.90
12053;DHT22;6087;48.982;12.064;2022-10-03T16:05:55;13.40;1.00
12053;DHT22;6087;48.982;12.064;2022-10-03T16:08:29;13.30;1.00
12053;DHT22;6087;48.982;12.064;2022-10-03T16:11:05;13.30;1.00
12053;DHT22;6087;48.982;12.064;2022-10-03T16:13:36;13.20;1.00
12053;DHT22;6087;48.982;12.064;2022-10-03T16:16:12;13.20;1.00
12053;DHT22;6087;48.982;12.064;2022-10-03T16:18:55;13.10;99.90
12053;DHT22;6087;48.982;12.064;2022-10-03T16:21:31;13.10;99.90
12053;DHT22;6087;48.982;12.064;2022-10-03T16:24:05;13.00;99.90
12053;DHT22;6087;48.982;12.064;2022-10-03T16:26:45;12.90;99.90
12053;DHT22;6087;48.982;12.064;2022-10-03T16:29:16;12.90;1.00
12053;DHT22;6087;48.982;12.064;2022-10-03T16:31:49;12.90;1.00
12053;DHT22;6087;48.982;12.064;2022-10-03T16:34:20;12.80;1.00
12053;DHT22;6087;48.982;12.064;2022-10-03T16:36:50;12.80;1.00
12053;DHT22;6087;48.982;12.064;2022-10-03T16:39:19;12.80;1.00
12053;DHT22;6087;48.982;12.064;2022-10-03T16:41:52;12.70;1.00
12053;DHT22;6087;48.982;12.064;2022-10-03T16:44:23;12.70;1.00
12053;DHT22;6087;48.982;12.064;2022-10-03T16:46:53;12.70;1.00
12053;DHT22;6087;48.982;12.064;2022-10-03T16:49:40;12.60;1.00
12053;DHT22;6087;48.982;12.064;2022-10-03T16:52:30;12.60;1.00
12053;DHT22;6087;48.982;12.064;2022-10-03T16:55:01;12.50;1.00
12053;DHT22;6087;48.982;12.064;2022-10-03T16:57:38;12.50;1.00
12053;DHT22;6087;48.982;12.064;2022-10-03T17:00:13;12.40;1.00
12053;DHT22;6087;48.982;12.064;2022-10-03T17:02:41;12.40;1.00
12053;DHT22;6087;48.982;12.064;2022-10-03T17:05:11;12.30;1.00
12053;DHT22;6087;48.982;12.064;2022-10-03T17:07:41;12.30;1.00
12053;DHT22;6087;48.982;12.064;2022-10-03T17:10:32;12.20;1.00
12053;DHT22;6087;48.982;12.064;2022-10-03T17:13:05;12.20;1.00
12053;DHT22;6087;48.982;12.064;2022-10-03T17:15:45;12.20;1.00
12053;DHT22;6087;48.982;12.064;2022-10-03T17:18:19;12.20;1.00
12053;DHT22;6087;48.982;12.064;2022-10-03T17:20:49;12.20;1.00
12053;DHT22;6087;48.982;12.064;2022-10-03T17:23:31;12.10;1.00
12053;DHT22;6087;48.982;12.064;2022-10-03T17:26:05;12.00;1.00
12053;DHT22;6087;48.982;12.064;2022-10-03T17:28:42;12.00;1.00
12053;DHT22;6087;48.982;12.064;2022-10-03T17:31:28;12.00;1.00
12053;DHT22;6087;48.982;12.064;2022-10-03T17:34:03;12.00;1.00
12053;DHT22;6087;48.982;12.064;2022-10-03T17:39:47;11.90;1.00
12053;DHT22;6087;48.982;12.064;2022-10-03T17:42:30;11.80;1.00
12053;DHT22;6087;48.982;12.064;2022-10-03T17:45:07;11.70;1.00
12053;DHT22;6087;48.982;12.064;2022-10-03T17:47:46;11.70;1.00
12053;DHT22;6087;48.982;12.064;2022-10-03T17:50:21;11.70;1.00
12053;DHT22;6087;48.982;12.064;2022-10-03T17:52:49;11.70;1.00
12053;DHT22;6087;48.982;12.064;2022-10-03T17:55:21;11.60;1.00
12053;DHT22;6087;48.982;12.064;2022-10-03T17:57:52;11.60;1.00
12053;DHT22;6087;48.982;12.064;2022-10-03T18:00:23;11.50;1.00
12053;DHT22;6087;48.982;12.064;2022-10-03T18:02:56;11.50;1.00
12053;DHT22;6087;48.982;12.064;2022-10-03T18:05:28;11.40;1.00
12053;DHT22;6087;48.982;12.064;2022-10-03T18:08:00;11.40;1.00
12053;DHT22;6087;48.982;12.064;2022-10-03T18:10:31;11.30;1.00
12053;DHT22;6087;48.982;12.064;2022-10-03T18:13:01;11.30;1.00
12053;DHT22;6087;48.982;12.064;2022-10-03T18:15:44;11.30;1.00
12053;DHT22;6087;48.982;12.064;2022-10-03T18:18:52;11.30;1.00
12053;DHT22;6087;48.982;12.064;2022-10-03T18:21:31;11.30;1.00
12053;DHT22;6087;48.982;12.064;2022-10-03T18:24:22;11.30;1.00
12053;DHT22;6087;48.982;12.064;2022-10-03T18:27:02;11.20;1.00
12053;DHT22;6087;48.982;12.064;2022-10-03T18:29:35;11.20;1.00
12053;DHT22;6087;48.982;12.064;2022-10-03T18:32:12;11.20;1.00
12053;DHT22;6087;48.982;12.064;2022-10-03T18:34:45;11.10;1.00
12053;DHT22;6087;48.982;12.064;2022-10-03T18:40:22;11.10;1.00
12053;DHT22;6087;48.982;12.064;2022-10-03T18:42:51;11.10;1.00
12053;DHT22;6087;48.982;12.064;2022-10-03T18:45:21;11.00;1.00
12053;DHT22;6087;48.982;12.064;2022-10-03T18:47:54;11.00;1.00
12053;DHT22;6087;48.982;12.064;2022-10-03T18:50:27;11.00;1.00
12053;DHT22;6087;48.982;12.064;2022-10-03T18:53:12;11.00;1.00
12053;DHT22;6087;48.982;12.064;2022-10-03T18:55:43;11.10;1.00
12053;DHT22;6087;48.982;12.064;2022-10-03T18:58:16;11.10;1.00
12053;DHT22;6087;48.982;12.064;2022-10-03T19:00:49;11.10;1.00
12053;DHT22;6087;48.982;12.064;2022-10-03T19:03:24;11.10;1.00
12053;DHT22;6087;48.982;12.064;2022-10-03T19:05:58;11.10;1.00
12053;DHT22;6087;48.982;12.064;2022-10-03T19:08:34;11.00;1.00
12053;DHT22;6087;48.982;12.064;2022-10-03T19:11:10;11.00;1.00
12053;DHT22;6087;48.982;12.064;2022-10-03T19:13:44;11.00;1.00
12053;DHT22;6087;48.982;12.064;2022-10-03T19:16:39;11.00;1.00
12053;DHT22;6087;48.982;12.064;2022-10-03T19:19:16;11.10;1.00
12053;DHT22;6087;48.982;12.064;2022-10-03T19:21:47;11.00;1.00
12053;DHT22;6087;48.982;12.064;2022-10-03T19:24:18;11.10;1.00
12053;DHT22;6087;48.982;12.064;2022-10-03T19:26:49;11.10;1.00
12053;DHT22;6087;48.982;12.064;2022-10-03T19:29:21;11.00;1.00
12053;DHT22;6087;48.982;12.064;2022-10-03T19:31:58;11.00;1.00
12053;DHT22;6087;48.982;12.064;2022-10-03T19:34:34;11.00;1.00
12053;DHT22;6087;48.982;12.064;2022-10-03T19:37:04;10.90;1.00
12053;DHT22;6087;48.982;12.064;2022-10-03T19:39:33;10.90;1.00
12053;DHT22;6087;48.982;12.064;2022-10-03T19:42:17;11.00;1.00
12053;DHT22;6087;48.982;12.064;2022-10-03T19:44:48;11.00;1.00
12053;DHT22;6087;48.982;12.064;2022-10-03T19:47:16;11.00;1.00
12053;DHT22;6087;48.982;12.064;2022-10-03T19:49:51;11.00;1.00
12053;DHT22;6087;48.982;12.064;2022-10-03T19:52:27;11.00;1.00
12053;DHT22;6087;48.982;12.064;2022-10-03T19:55:00;10.90;1.00
12053;DHT22;6087;48.982;12.064;2022-10-03T19:57:37;10.90;1.00